Meio Maru — JD4157 — position and weather

sailwx.info

Track history (hours):
 
Tides and Currents Weather Stations Pressure Air Temp Water Temp Dewpoint Dewpoint Depression Visibility Wind Speed Wind Dir Waves Ship Positions

Meio Maru

Last reported at 2017-Dec-09 04:46 UTC. Time now 2017-Dec-17 23:23 UTC.
Position N 34°24' E 130°52'.
Warning: this ship's position is 8 days out of date.

Length 74 m; draft 4 m.

Type: Cargo ship. MMSI: 431009191.

Date/timePositionNaut miles runAvg speedWind from/ knotsBaromVisibWave heightAir tempDewpointWater temp
2017-Dec-09 04:46N 34°24' E 130°52'4 9.7
2017-Dec-09 04:21N 34°21' E 130°49'4 9.7
2017-Dec-09 03:57N 34°18' E 130°49'510.1
2017-Dec-09 03:30N 34°13' E 130°50'510.0
2017-Dec-09 03:00N 34°08' E 130°50'5 9.9
2017-Dec-09 02:30N 34°03' E 130°52'510.2
2017-Dec-09 02:00N 33°58' E 130°53'4 8.4
2017-Dec-09 01:30N 33°55' E 130°55'5 9.1
2017-Dec-09 01:00N 33°58' E 130°58'2 4.3
2017-Dec-09 00:30N 33°59' E 131°01'4 8.1
2017-Dec-09 00:00N 33°57' E 131°05'611.5
2017-Dec-08 23:30N 33°54' E 131°11'611.4
2017-Dec-08 23:00N 33°52' E 131°17'611.1
2017-Dec-08 22:30N 33°51' E 131°24'510.7
2017-Dec-08 22:00N 33°50' E 131°30'510.4
2017-Dec-08 21:30N 33°49' E 131°36'510.0
2017-Dec-08 21:00N 33°48' E 131°42'5 9.9
2017-Dec-08 20:30N 33°47' E 131°48'11 9.9
2017-Dec-08 19:23N 33°46' E 132°01'410.8
2017-Dec-08 19:00N 33°47' E 132°06'711.3
2017-Dec-08 18:24N 33°50' E 132°13'511.3
2017-Dec-08 17:56N 33°50' E 132°20'611.1
2017-Dec-08 17:26N 33°51' E 132°26'510.5
2017-Dec-08 16:59N 33°53' E 132°31'610.0
2017-Dec-08 16:25N 33°55' E 132°38'4 9.7
2017-Dec-08 16:00N 33°57' E 132°42'  
2017-Dec-03 05:45N 34°37' E 135°23'1 4.3
2017-Dec-03 05:30N 34°37' E 135°21'611.3
2017-Dec-03 05:00N 34°36' E 135°15'611.7
2017-Dec-03 04:30N 34°35' E 135°08'714.2
2017-Dec-03 04:00N 34°37' E 134°59'713.2
2017-Dec-03 03:31N 34°34' E 134°52'611.6
2017-Dec-03 03:00N 34°32' E 134°46'611.3
2017-Dec-03 02:30N 34°30' E 134°39'611.4
2017-Dec-03 02:01N 34°28' E 134°33'10 0.2
2017-Dec-01 06:52N 34°37' E 134°30'410.9
2017-Dec-01 06:29N 34°37' E 134°35'610.9
2017-Dec-01 05:56N 34°39' E 134°42'510.9
2017-Dec-01 05:30N 34°40' E 134°47'3 6.2
2017-Dec-01 05:00N 34°42' E 134°50'0 0.0
2017-Dec-01 04:28N 34°42' E 134°50'0 0.0
2017-Dec-01 03:58N 34°42' E 134°50'0 0.0
2017-Dec-01 03:28N 34°42' E 134°50'0 0.0
2017-Dec-01 02:58N 34°42' E 134°50'0 0.0
2017-Dec-01 02:28N 34°42' E 134°50'0 0.0
2017-Dec-01 01:58N 34°42' E 134°50'0 0.0
2017-Dec-01 01:28N 34°42' E 134°50'0 0.0
2017-Dec-01 00:58N 34°42' E 134°50'0 0.0
2017-Dec-01 00:28N 34°42' E 134°50'0 0.0
2017-Nov-30 23:58N 34°42' E 134°50'0 0.0
2017-Nov-30 23:28N 34°42' E 134°50'0 0.1
2017-Nov-30 23:00N 34°42' E 134°50'2 3.9
2017-Nov-30 22:30N 34°40' E 134°49'0 0.0
2017-Nov-30 20:50N 34°40' E 134°49'0 0.0
2017-Nov-30 20:29N 34°40' E 134°49'0 0.0
2017-Nov-30 19:59N 34°40' E 134°49'0 0.0
2017-Nov-30 19:26N 34°40' E 134°49'0 0.1
2017-Nov-30 18:59N 34°40' E 134°49'0 0.0
2017-Nov-30 18:29N 34°40' E 134°49'0 0.0
2017-Nov-30 17:56N 34°40' E 134°49'0 0.0
2017-Nov-30 17:26N 34°40' E 134°49'0 0.0
2017-Nov-30 16:56N 34°40' E 134°49'0 0.0
2017-Nov-30 16:30N 34°40' E 134°49'3 5.5
2017-Nov-30 16:00N 34°39' E 134°52'4 8.9
2017-Nov-30 15:30N 34°37' E 134°57'4 7.5
2017-Nov-30 15:00N 34°37' E 135°02'3 6.9
2017-Nov-30 14:30N 34°35' E 135°05'5 9.5
2017-Nov-30 14:00N 34°30' E 135°04'510.3
2017-Nov-30 13:30N 34°25' E 135°02'510.1
2017-Nov-30 13:00N 34°20' E 135°00'5 9.2
2017-Nov-30 12:31N 34°16' E 134°59'510.4
2017-Nov-30 12:00N 34°11' E 135°00'510.8
2017-Nov-30 11:31N 34°05' E 135°01'510.7
2017-Nov-30 11:00N 33°60' E 135°02'165 8.7
2017-Nov-29 16:06N 34°34' E 138°16'1110.0
2017-Nov-29 14:58N 34°35' E 138°30'15 9.7
2017-Nov-29 13:24N 34°35' E 138°49'5 9.4
2017-Nov-29 12:54N 34°36' E 138°54'4 9.6
2017-Nov-29 12:27N 34°38' E 138°59'611.0
2017-Nov-29 11:52N 34°43' E 139°04'511.8
2017-Nov-29 11:26N 34°47' E 139°07'611.8
2017-Nov-29 10:54N 34°52' E 139°11'611.2
2017-Nov-29 10:22N 34°57' E 139°16'411.4
2017-Nov-29 10:01N 34°59' E 139°20'710.5
2017-Nov-29 09:23N 35°02' E 139°28'4 9.5
2017-Nov-29 09:00N 35°03' E 139°32'510.3
2017-Nov-29 08:30N 35°06' E 139°37'611.1
2017-Nov-29 08:01N 35°09' E 139°43'611.5
2017-Nov-29 07:31N 35°14' E 139°46'611.9
2017-Nov-29 07:01N 35°19' E 139°43'611.1
2017-Nov-29 06:31N 35°25' E 139°43'611.6
2017-Nov-29 06:01N 35°28' E 139°49'510.9
2017-Nov-29 05:31N 35°31' E 139°54'611.1
2017-Nov-29 05:00N 35°34' E 140°01'  
Track history (hours):
 
Tides and Currents Weather Stations Pressure Air Temp Water Temp Dewpoint Dewpoint Depression Visibility Wind Speed Wind Dir Waves Ship Positions

Meio Maru

Last reported at 2017-Dec-09 04:46 UTC. Time now 2017-Dec-17 23:23 UTC.
Position N 34°24' E 130°52'.
Warning: this ship's position is 8 days out of date.

Length 74 m; draft 4 m.

Type: Cargo ship. MMSI: 431009191.

Date/timePositionNaut miles runAvg speedWind from/ knotsBaromVisibWave heightAir tempDewpointWater temp
2017-Dec-09 04:46N 34°24' E 130°52'4 9.7
2017-Dec-09 04:21N 34°21' E 130°49'4 9.7
2017-Dec-09 03:57N 34°18' E 130°49'510.1
2017-Dec-09 03:30N 34°13' E 130°50'510.0
2017-Dec-09 03:00N 34°08' E 130°50'5 9.9
2017-Dec-09 02:30N 34°03' E 130°52'510.2
2017-Dec-09 02:00N 33°58' E 130°53'4 8.4
2017-Dec-09 01:30N 33°55' E 130°55'5 9.1
2017-Dec-09 01:00N 33°58' E 130°58'2 4.3
2017-Dec-09 00:30N 33°59' E 131°01'4 8.1
2017-Dec-09 00:00N 33°57' E 131°05'611.5
2017-Dec-08 23:30N 33°54' E 131°11'611.4
2017-Dec-08 23:00N 33°52' E 131°17'611.1
2017-Dec-08 22:30N 33°51' E 131°24'510.7
2017-Dec-08 22:00N 33°50' E 131°30'510.4
2017-Dec-08 21:30N 33°49' E 131°36'510.0
2017-Dec-08 21:00N 33°48' E 131°42'5 9.9
2017-Dec-08 20:30N 33°47' E 131°48'11 9.9
2017-Dec-08 19:23N 33°46' E 132°01'410.8
2017-Dec-08 19:00N 33°47' E 132°06'711.3
2017-Dec-08 18:24N 33°50' E 132°13'511.3
2017-Dec-08 17:56N 33°50' E 132°20'611.1
2017-Dec-08 17:26N 33°51' E 132°26'510.5
2017-Dec-08 16:59N 33°53' E 132°31'610.0
2017-Dec-08 16:25N 33°55' E 132°38'4 9.7
2017-Dec-08 16:00N 33°57' E 132°42'  
2017-Dec-03 05:45N 34°37' E 135°23'1 4.3
2017-Dec-03 05:30N 34°37' E 135°21'611.3
2017-Dec-03 05:00N 34°36' E 135°15'611.7
2017-Dec-03 04:30N 34°35' E 135°08'714.2
2017-Dec-03 04:00N 34°37' E 134°59'713.2
2017-Dec-03 03:31N 34°34' E 134°52'611.6
2017-Dec-03 03:00N 34°32' E 134°46'611.3
2017-Dec-03 02:30N 34°30' E 134°39'611.4
2017-Dec-03 02:01N 34°28' E 134°33'10 0.2
2017-Dec-01 06:52N 34°37' E 134°30'410.9
2017-Dec-01 06:29N 34°37' E 134°35'610.9
2017-Dec-01 05:56N 34°39' E 134°42'510.9
2017-Dec-01 05:30N 34°40' E 134°47'3 6.2
2017-Dec-01 05:00N 34°42' E 134°50'0 0.0
2017-Dec-01 04:28N 34°42' E 134°50'0 0.0
2017-Dec-01 03:58N 34°42' E 134°50'0 0.0
2017-Dec-01 03:28N 34°42' E 134°50'0 0.0
2017-Dec-01 02:58N 34°42' E 134°50'0 0.0
2017-Dec-01 02:28N 34°42' E 134°50'0 0.0
2017-Dec-01 01:58N 34°42' E 134°50'0 0.0
2017-Dec-01 01:28N 34°42' E 134°50'0 0.0
2017-Dec-01 00:58N 34°42' E 134°50'0 0.0
2017-Dec-01 00:28N 34°42' E 134°50'0 0.0
2017-Nov-30 23:58N 34°42' E 134°50'0 0.0
2017-Nov-30 23:28N 34°42' E 134°50'0 0.1
2017-Nov-30 23:00N 34°42' E 134°50'2 3.9
2017-Nov-30 22:30N 34°40' E 134°49'0 0.0
2017-Nov-30 20:50N 34°40' E 134°49'0 0.0
2017-Nov-30 20:29N 34°40' E 134°49'0 0.0
2017-Nov-30 19:59N 34°40' E 134°49'0 0.0
2017-Nov-30 19:26N 34°40' E 134°49'0 0.1
2017-Nov-30 18:59N 34°40' E 134°49'0 0.0
2017-Nov-30 18:29N 34°40' E 134°49'0 0.0
2017-Nov-30 17:56N 34°40' E 134°49'0 0.0
2017-Nov-30 17:26N 34°40' E 134°49'0 0.0
2017-Nov-30 16:56N 34°40' E 134°49'0 0.0
2017-Nov-30 16:30N 34°40' E 134°49'3 5.5
2017-Nov-30 16:00N 34°39' E 134°52'4 8.9
2017-Nov-30 15:30N 34°37' E 134°57'4 7.5
2017-Nov-30 15:00N 34°37' E 135°02'3 6.9
2017-Nov-30 14:30N 34°35' E 135°05'5 9.5
2017-Nov-30 14:00N 34°30' E 135°04'510.3
2017-Nov-30 13:30N 34°25' E 135°02'510.1
2017-Nov-30 13:00N 34°20' E 135°00'5 9.2
2017-Nov-30 12:31N 34°16' E 134°59'510.4
2017-Nov-30 12:00N 34°11' E 135°00'510.8
2017-Nov-30 11:31N 34°05' E 135°01'510.7
2017-Nov-30 11:00N 33°60' E 135°02'165 8.7
2017-Nov-29 16:06N 34°34' E 138°16'1110.0
2017-Nov-29 14:58N 34°35' E 138°30'15 9.7
2017-Nov-29 13:24N 34°35' E 138°49'5 9.4
2017-Nov-29 12:54N 34°36' E 138°54'4 9.6
2017-Nov-29 12:27N 34°38' E 138°59'611.0
2017-Nov-29 11:52N 34°43' E 139°04'511.8
2017-Nov-29 11:26N 34°47' E 139°07'611.8
2017-Nov-29 10:54N 34°52' E 139°11'611.2
2017-Nov-29 10:22N 34°57' E 139°16'411.4
2017-Nov-29 10:01N 34°59' E 139°20'710.5
2017-Nov-29 09:23N 35°02' E 139°28'4 9.5
2017-Nov-29 09:00N 35°03' E 139°32'510.3
2017-Nov-29 08:30N 35°06' E 139°37'611.1
2017-Nov-29 08:01N 35°09' E 139°43'611.5
2017-Nov-29 07:31N 35°14' E 139°46'611.9
2017-Nov-29 07:01N 35°19' E 139°43'611.1
2017-Nov-29 06:31N 35°25' E 139°43'611.6
2017-Nov-29 06:01N 35°28' E 139°49'510.9
2017-Nov-29 05:31N 35°31' E 139°54'611.1
2017-Nov-29 05:00N 35°34' E 140°01'  

Dump ship's entire track history